Time;durP1;ratioP1;P1;durP2;ratioP2;P2;SDS_P1;SDS_P2;PMS_P1;PMS_P2;Temp;Humidity;BMP_temperature;BMP_pressure;BME280_temperature;BME280_humidity;BME280_pressure;Samples;Min_cycle;Max_cycle;Signal;HPM_P1;HPM_P2
2022/04/13 00:00:16;;;;;;;2.90;1.17;;;;;;;7.22;60.84;100227.19;1702619;83;21043;-76
2022/04/13 00:02:42;;;;;;;1.98;0.98;;;;;;;7.20;60.92;100196.07;1664615;86;21131;-77
2022/04/13 00:05:09;;;;;;;1.20;0.70;;;;;;;7.16;60.49;100188.31;1704327;82;21153;-76
2022/04/13 00:07:37;;;;;;;3.22;1.07;;;;;;;7.16;60.66;100192.30;1705992;83;21071;-75
2022/04/13 00:10:07;;;;;;;2.90;1.25;;;;;;;7.14;61.10;100211.67;1703041;82;21553;-74
2022/04/13 00:12:36;;;;;;;2.22;1.20;;;;;;;7.10;61.51;100194.59;1665980;84;21636;-76
2022/04/13 00:15:06;;;;;;;2.62;1.05;;;;;;;7.06;62.18;100189.49;1707578;82;21035;-75
2022/04/13 00:17:37;;;;;;;1.60;0.88;;;;;;;7.03;62.54;100199.27;1700101;82;21498;-75
2022/04/13 00:20:06;;;;;;;2.55;1.10;;;;;;;6.98;62.56;100195.22;1712340;82;21040;-78
2022/04/13 00:22:33;;;;;;;1.77;0.88;;;;;;;6.95;62.56;100187.73;1701417;82;21117;-77
2022/04/13 00:25:00;;;;;;;2.00;1.00;;;;;;;6.93;62.84;100195.93;1694137;82;21102;-77
2022/04/13 00:27:27;;;;;;;2.92;1.12;;;;;;;6.91;62.91;100215.30;1681946;84;22270;-76
2022/04/13 00:29:53;;;;;;;2.05;0.90;;;;;;;6.90;62.85;100196.94;1701928;82;21561;-76
2022/04/13 00:32:20;;;;;;;1.50;0.78;;;;;;;6.91;62.91;100195.88;1702591;82;21114;-76
2022/04/13 00:34:48;;;;;;;2.42;0.90;;;;;;;6.92;63.31;100186.37;1702582;82;21112;-77
2022/04/13 00:37:15;;;;;;;3.45;1.00;;;;;;;6.91;63.31;100186.09;1701722;82;21973;-78
2022/04/13 00:39:43;;;;;;;2.17;1.00;;;;;;;6.90;63.03;100184.99;1701603;82;22060;-77
2022/04/13 00:42:13;;;;;;;2.02;1.00;;;;;;;6.93;62.96;100197.78;1701715;84;21071;-76
2022/04/13 00:44:40;;;;;;;1.95;0.80;;;;;;;6.93;62.83;100180.00;1702158;84;21438;-75
2022/04/13 00:47:07;;;;;;;1.07;0.65;;;;;;;6.95;62.50;100185.88;1701163;82;21062;-77
2022/04/13 00:49:36;;;;;;;1.00;0.60;;;;;;;6.99;62.48;100183.02;1697889;82;21609;-75
2022/04/13 00:52:07;;;;;;;2.15;0.90;;;;;;;7.02;62.52;100179.08;1697920;82;21561;-75
2022/04/13 00:54:34;;;;;;;2.98;1.10;;;;;;;7.03;62.25;100172.19;1702193;82;21105;-76
2022/04/13 00:57:11;;;;;;;2.98;1.12;;;;;;;7.04;61.86;100186.27;1701520;82;21113;-77
2022/04/13 00:59:39;;;;;;;2.60;1.20;;;;;;;7.07;61.79;100203.57;1700970;82;21066;-77
2022/04/13 01:02:08;;;;;;;2.98;1.50;;;;;;;7.07;61.71;100187.11;1701941;82;22201;-78
2022/04/13 01:04:36;;;;;;;1.85;1.00;;;;;;;7.10;61.69;100174.67;1701827;82;21689;-78
2022/04/13 01:07:08;;;;;;;1.60;0.72;;;;;;;7.13;61.95;100188.80;1715810;82;21098;-76
2022/04/13 01:09:36;;;;;;;1.37;0.80;;;;;;;7.09;62.43;100210.26;1700919;82;21075;-79
2022/04/13 01:12:05;;;;;;;1.80;0.70;;;;;;;7.05;63.16;100182.05;1701083;82;21057;-78
2022/04/13 01:14:32;;;;;;;2.12;0.80;;;;;;;6.98;63.60;100170.00;1701679;83;21095;-78
2022/04/13 01:17:01;;;;;;;1.72;0.70;;;;;;;6.93;63.88;100167.25;1685518;82;21105;-78
2022/04/13 01:19:28;;;;;;;1.35;0.70;;;;;;;6.91;64.04;100173.31;1686116;84;21608;-77
2022/04/13 01:22:03;;;;;;;1.57;0.90;;;;;;;6.90;63.75;100185.79;1702206;82;21061;-76
2022/04/13 01:24:29;;;;;;;1.20;0.70;;;;;;;6.91;63.35;100186.59;1703866;82;21156;-76
2022/04/13 01:26:56;;;;;;;2.37;1.10;;;;;;;6.95;63.22;100186.41;1649598;84;21144;-77
2022/04/13 01:29:23;;;;;;;2.37;1.02;;;;;;;6.95;63.15;100198.36;1702075;84;21747;-77
2022/04/13 01:31:53;;;;;;;2.35;0.90;;;;;;;6.97;63.07;100185.10;1701812;82;22001;-76
2022/04/13 01:34:21;;;;;;;2.42;1.00;;;;;;;7.00;63.15;100177.98;1701486;84;21022;-78
2022/04/13 01:36:48;;;;;;;2.35;0.70;;;;;;;7.01;63.09;100194.74;1701484;84;21561;-77
2022/04/13 01:39:17;;;;;;;1.62;0.70;;;;;;;7.00;63.13;100181.16;1702341;82;21055;-77
2022/04/13 01:41:44;;;;;;;2.05;0.78;;;;;;;6.99;63.06;100179.03;1702087;83;21084;-76
2022/04/13 01:44:13;;;;;;;1.40;0.70;;;;;;;6.98;62.92;100170.80;1701236;82;21491;-77
2022/04/13 01:46:41;;;;;;;1.05;0.72;;;;;;;6.99;62.94;100186.20;1701255;82;21102;-77
2022/04/13 01:49:09;;;;;;;1.90;0.70;;;;;;;7.00;63.04;100173.20;1701720;84;21019;-76
2022/04/13 01:51:38;;;;;;;1.20;0.70;;;;;;;7.03;63.12;100176.70;1701364;82;21106;-77
2022/04/13 01:54:04;;;;;;;3.00;1.12;;;;;;;7.05;63.16;100174.61;1698230;82;21869;-78
2022/04/13 01:56:33;;;;;;;3.67;1.80;;;;;;;7.05;62.88;100164.80;1708968;82;21059;-76
2022/04/13 01:59:01;;;;;;;1.70;0.80;;;;;;;7.08;62.67;100165.37;1702844;83;21005;-78
2022/04/13 02:01:29;;;;;;;2.33;0.80;;;;;;;7.12;62.45;100155.86;1697012;82;21022;-77
2022/04/13 02:03:57;;;;;;;2.10;0.80;;;;;;;7.14;62.42;100162.54;1694312;84;21082;-76
2022/04/13 02:06:24;;;;;;;2.10;0.90;;;;;;;7.13;62.28;100155.59;1697262;84;21691;-78
2022/04/13 02:08:50;;;;;;;3.50;1.20;;;;;;;7.14;62.44;100161.21;1677944;85;21123;-76
2022/04/13 02:11:19;;;;;;;2.02;0.90;;;;;;;7.10;62.65;100173.88;1663381;85;21574;-76
2022/04/13 02:13:45;;;;;;;1.32;0.70;;;;;;;7.07;63.02;100149.93;1675814;84;21090;-77
2022/04/13 02:16:13;;;;;;;2.12;0.80;;;;;;;7.04;63.31;100163.19;1665163;84;21167;-78
2022/04/13 02:18:41;;;;;;;1.90;0.70;;;;;;;7.02;63.88;100164.48;1663080;84;21120;-76
2022/04/13 02:21:08;;;;;;;1.87;0.80;;;;;;;6.95;64.68;100177.92;1667919;84;21576;-78
2022/04/13 02:23:36;;;;;;;1.75;0.80;;;;;;;6.88;65.44;100163.17;1646283;84;21605;-78
2022/04/13 02:26:03;;;;;;;2.47;1.00;;;;;;;6.76;66.02;100170.71;1696759;83;21098;-75
2022/04/13 02:28:31;;;;;;;2.87;1.00;;;;;;;6.68;66.25;100163.66;1699153;83;21101;-75
2022/04/13 02:30:57;;;;;;;2.75;0.98;;;;;;;6.62;66.47;100165.45;1698568;83;21133;-75
2022/04/13 02:33:24;;;;;;;1.67;0.75;;;;;;;6.59;66.69;100171.23;1664748;86;21025;-74
2022/04/13 02:35:51;;;;;;;1.70;0.85;;;;;;;6.56;66.70;100191.61;1694267;84;21066;-77
2022/04/13 02:38:17;;;;;;;1.60;1.00;;;;;;;6.58;66.57;100177.06;1696993;83;21150;-76
2022/04/13 02:40:45;;;;;;;1.82;0.90;;;;;;;6.59;66.36;100171.23;1678101;85;21122;-77
2022/04/13 02:43:12;;;;;;;1.92;0.90;;;;;;;6.60;66.06;100168.05;1710804;82;21605;-76
2022/04/13 02:45:39;;;;;;;2.35;0.90;;;;;;;6.63;65.95;100168.90;1702595;82;21621;-77
2022/04/13 02:48:08;;;;;;;3.30;1.05;;;;;;;6.65;65.91;100174.78;1697499;84;21071;-76
2022/04/13 02:50:35;;;;;;;1.82;0.98;;;;;;;6.66;65.86;100177.19;1695670;84;21575;-78
2022/04/13 02:53:03;;;;;;;2.05;1.07;;;;;;;6.67;65.80;100173.47;1699079;82;21114;-77
2022/04/13 02:55:30;;;;;;;3.02;0.90;;;;;;;6.68;65.81;100182.23;1706163;82;21146;-77
2022/04/13 02:57:59;;;;;;;2.17;1.12;;;;;;;6.71;65.87;100178.61;1699177;82;21547;-76
2022/04/13 03:00:25;;;;;;;2.02;1.12;;;;;;;6.71;65.95;100169.81;1708449;82;21516;-76
2022/04/13 03:02:53;;;;;;;3.62;1.10;;;;;;;6.74;65.95;100164.03;1715488;82;21100;-75
2022/04/13 03:05:19;;;;;;;2.87;1.00;;;;;;;6.75;65.86;100169.64;1679006;84;21578;-76
2022/04/13 03:07:46;;;;;;;3.20;1.20;;;;;;;6.73;66.14;100167.20;1696093;84;21159;-77
2022/04/13 03:10:14;;;;;;;2.22;1.00;;;;;;;6.72;66.22;100183.39;1716422;82;21034;-76
2022/04/13 03:12:42;;;;;;;2.17;1.00;;;;;;;6.73;66.38;100173.84;1696472;82;21147;-77
2022/04/13 03:15:11;;;;;;;3.02;1.20;;;;;;;6.73;66.51;100182.34;1682932;84;21111;-77
2022/04/13 03:17:40;;;;;;;3.90;1.98;;;;;;;6.72;66.66;100180.73;1700275;83;21103;-77
2022/04/13 03:20:09;;;;;;;3.60;1.62;;;;;;;6.71;66.73;100177.28;1710556;83;21243;-76
2022/04/13 03:22:36;;;;;;;3.35;1.75;;;;;;;6.69;66.55;100180.69;1675778;84;21621;-78
2022/04/13 03:25:03;;;;;;;3.10;1.57;;;;;;;6.69;66.21;100159.98;1679943;84;21111;-78
2022/04/13 03:27:31;;;;;;;2.45;1.52;;;;;;;6.73;66.15;100166.41;1703407;83;21015;-78
2022/04/13 03:29:57;;;;;;;3.45;1.17;;;;;;;6.76;66.16;100160.62;1697729;83;21043;-77
2022/04/13 03:32:24;;;;;;;2.95;1.12;;;;;;;6.77;66.28;100180.80;1697453;84;22291;-76
2022/04/13 03:34:52;;;;;;;2.58;1.12;;;;;;;6.78;66.54;100173.14;1697624;84;21606;-77
2022/04/13 03:37:21;;;;;;;4.83;1.22;;;;;;;6.78;66.52;100189.86;1705008;82;21517;-76
2022/04/13 03:39:48;;;;;;;3.58;1.20;;;;;;;6.78;66.23;100173.94;1699596;82;21080;-77
2022/04/13 03:42:16;;;;;;;1.95;0.95;;;;;;;6.79;66.06;100188.81;1691700;83;21103;-78
2022/04/13 03:44:42;;;;;;;2.72;1.20;;;;;;;6.78;65.88;100171.81;1697911;84;21678;-75
2022/04/13 03:47:09;;;;;;;1.62;0.98;;;;;;;6.80;65.80;100175.81;1697222;84;21151;-77
2022/04/13 03:49:36;;;;;;;3.37;1.20;;;;;;;6.83;65.79;100179.04;1692580;83;21012;-78
2022/04/13 03:52:04;;;;;;;3.85;1.45;;;;;;;6.87;65.96;100176.98;1672539;84;20944;-76
2022/04/13 03:54:33;;;;;;;3.77;1.37;;;;;;;6.88;66.21;100171.97;1666896;84;21595;-77
2022/04/13 03:56:59;;;;;;;3.33;1.40;;;;;;;6.89;66.45;100172.77;1696413;83;21832;-76
2022/04/13 03:59:27;;;;;;;2.87;1.47;;;;;;;6.89;66.46;100186.05;1703044;83;21627;-77
2022/04/13 04:01:55;;;;;;;3.42;1.47;;;;;;;6.86;66.40;100178.56;1696081;84;21028;-78
2022/04/13 04:04:21;;;;;;;4.28;1.75;;;;;;;6.85;66.23;100175.63;1696571;83;21185;-76
2022/04/13 04:06:49;;;;;;;5.17;2.40;;;;;;;6.84;66.07;100197.37;1695655;83;21359;-77
2022/04/13 04:09:17;;;;;;;5.25;2.17;;;;;;;6.84;65.90;100186.75;1694880;83;21280;-76
2022/04/13 04:11:43;;;;;;;2.33;1.10;;;;;;;6.87;65.89;100180.16;1717691;83;21020;-75
2022/04/13 04:14:10;;;;;;;1.47;0.80;;;;;;;6.88;65.47;100197.69;1696003;83;21031;-78
2022/04/13 04:16:36;;;;;;;2.65;1.25;;;;;;;6.88;65.23;100189.72;1696683;83;21056;-77
2022/04/13 04:19:03;;;;;;;2.58;1.30;;;;;;;6.88;65.17;100204.33;1695126;83;21011;-75
2022/04/13 04:21:30;;;;;;;2.60;1.47;;;;;;;6.86;65.03;100204.58;1723625;83;21547;-77
2022/04/13 04:23:57;;;;;;;2.90;1.40;;;;;;;6.86;64.88;100197.95;1704458;83;21011;-76
2022/04/13 04:26:25;;;;;;;1.30;0.80;;;;;;;6.87;64.76;100197.42;1695901;84;20984;-76
2022/04/13 04:28:51;;;;;;;1.05;0.70;;;;;;;6.85;64.56;100187.58;1700100;83;21644;-76
2022/04/13 04:31:49;;;;;;;1.65;1.00;;;;;;;6.86;64.41;100208.56;1723818;83;21011;-77
2022/04/13 04:33:46;;;;;;;2.55;1.10;;;;;;;6.85;64.45;100205.64;1669905;85;21288;-78
2022/04/13 04:36:13;;;;;;;2.05;1.02;;;;;;;6.84;64.44;100204.00;1667936;86;21083;-76
2022/04/13 04:38:40;;;;;;;1.72;0.90;;;;;;;6.83;64.55;100207.71;1701428;83;21027;-78
2022/04/13 04:41:07;;;;;;;3.40;1.40;;;;;;;6.85;64.58;100192.89;1689525;83;21102;-78
2022/04/13 04:43:34;;;;;;;2.72;1.40;;;;;;;6.86;64.72;100212.55;1668026;86;21095;-79
2022/04/13 04:46:03;;;;;;;2.25;1.10;;;;;;;6.85;64.62;100190.23;1668045;86;21278;-77
2022/04/13 04:48:29;;;;;;;2.50;1.20;;;;;;;6.85;64.60;100193.69;1702552;83;21016;-74
2022/04/13 04:50:56;;;;;;;2.22;0.90;;;;;;;6.86;64.59;100195.81;1725879;83;21523;-77
2022/04/13 04:53:23;;;;;;;1.32;0.75;;;;;;;6.83;64.62;100201.61;1726069;83;20930;-75
2022/04/13 04:55:50;;;;;;;1.62;0.80;;;;;;;6.80;64.75;100189.61;1705847;83;21916;-77
2022/04/13 04:58:16;;;;;;;2.33;1.02;;;;;;;6.79;64.92;100199.43;1694175;83;21333;-77
2022/04/13 05:00:44;;;;;;;2.90;1.55;;;;;;;6.80;65.06;100205.02;1724000;83;21042;-77
2022/04/13 05:03:11;;;;;;;3.67;1.72;;;;;;;6.79;65.13;100202.61;1715929;83;21031;-77
2022/04/13 05:05:41;;;;;;;2.15;0.90;;;;;;;6.78;65.25;100203.14;1696843;83;21063;-78
2022/04/13 05:08:08;;;;;;;1.82;0.80;;;;;;;6.75;65.10;100194.33;1695808;84;21062;-76
2022/04/13 05:10:35;;;;;;;1.98;0.93;;;;;;;6.75;65.12;100206.80;1701634;83;21171;-75
2022/04/13 05:13:02;;;;;;;2.08;0.98;;;;;;;6.75;65.21;100203.62;1696220;84;21112;-77
2022/04/13 05:15:31;;;;;;;1.80;0.93;;;;;;;6.75;65.23;100220.87;1696042;84;21107;-77
2022/04/13 05:17:58;;;;;;;2.95;1.50;;;;;;;6.76;65.37;100197.25;1696104;83;21039;-78
2022/04/13 05:20:26;;;;;;;2.92;1.60;;;;;;;6.78;65.51;100204.47;1695866;84;20975;-77
2022/04/13 05:22:52;;;;;;;3.02;1.27;;;;;;;6.83;65.65;100209.05;1697012;83;21094;-78
2022/04/13 05:25:19;;;;;;;4.20;1.98;;;;;;;6.86;65.71;100215.20;1696059;84;21140;-79
2022/04/13 05:27:47;;;;;;;2.45;1.20;;;;;;;6.90;65.78;100219.50;1686825;84;21032;-77
2022/04/13 05:30:14;;;;;;;2.05;1.12;;;;;;;6.89;65.65;100211.27;1669485;86;21486;-76
2022/04/13 05:32:58;;;;;;;2.42;1.40;;;;;;;6.87;65.64;100225.29;1697059;84;21007;-76
2022/04/13 05:35:26;;;;;;;2.50;1.30;;;;;;;6.85;65.78;100215.45;1696761;84;21167;-77
2022/04/13 05:37:57;;;;;;;3.12;1.57;;;;;;;6.82;66.00;100212.75;1696614;84;21067;-76
2022/04/13 05:40:26;;;;;;;3.05;1.62;;;;;;;6.81;66.30;100219.08;1697110;84;21550;-77
2022/04/13 05:42:54;;;;;;;3.80;1.67;;;;;;;6.83;66.55;100214.88;1696731;84;20983;-79
2022/04/13 05:45:20;;;;;;;3.62;1.67;;;;;;;6.84;66.54;100206.66;1696689;84;21526;-75
2022/04/13 05:47:48;;;;;;;3.77;1.60;;;;;;;6.86;66.57;100209.89;1667133;84;21162;-76
2022/04/13 05:50:15;;;;;;;1.90;1.17;;;;;;;6.88;66.66;100205.66;1709463;83;21598;-77
2022/04/13 05:52:43;;;;;;;2.15;1.10;;;;;;;6.85;66.68;100219.44;1707784;82;21051;-76
2022/04/13 05:55:10;;;;;;;4.95;1.87;;;;;;;6.84;66.84;100212.50;1706232;83;21012;-76
2022/04/13 05:57:39;;;;;;;3.30;1.40;;;;;;;6.82;67.01;100215.41;1717108;82;21058;-77
2022/04/13 06:00:08;;;;;;;3.65;1.77;;;;;;;6.81;67.29;100220.41;1696318;82;21154;-78
2022/04/13 06:02:37;;;;;;;3.85;2.37;;;;;;;6.80;67.43;100219.61;1699021;82;21130;-77
2022/04/13 06:05:05;;;;;;;4.03;2.52;;;;;;;6.79;67.71;100225.17;1699120;84;21011;-77
2022/04/13 06:07:33;;;;;;;3.72;1.90;;;;;;;6.79;67.94;100221.99;1712239;82;21108;-78
2022/04/13 06:10:03;;;;;;;3.60;2.10;;;;;;;6.77;68.07;100226.73;1678231;84;21480;-77
2022/04/13 06:12:35;;;;;;;3.75;2.00;;;;;;;6.78;68.03;100228.36;1697146;82;21942;-77
2022/04/13 06:15:07;;;;;;;2.25;1.35;;;;;;;6.82;67.97;100230.01;1658994;84;21000;-78
2022/04/13 06:17:36;;;;;;;3.15;1.70;;;;;;;6.81;67.91;100223.89;1723617;83;21542;-77
2022/04/13 06:20:05;;;;;;;3.77;1.37;;;;;;;6.85;67.89;100232.19;1714285;82;21050;-77
2022/04/13 06:22:33;;;;;;;1.85;1.20;;;;;;;6.88;67.77;100229.05;1685671;82;21157;-77
2022/04/13 06:25:04;;;;;;;2.55;1.30;;;;;;;6.89;67.54;100232.51;1665619;84;21131;-77
2022/04/13 06:27:32;;;;;;;1.98;1.00;;;;;;;6.89;67.48;100225.87;1700453;82;21051;-78
2022/04/13 06:29:59;;;;;;;2.50;0.95;;;;;;;6.89;67.62;100235.16;1706575;83;21032;-77
2022/04/13 06:32:39;;;;;;;1.90;0.93;;;;;;;6.90;67.57;100241.55;1699940;83;21070;-78
2022/04/13 06:35:11;;;;;;;2.87;1.47;;;;;;;6.91;67.59;100247.66;1717834;83;20942;-77
2022/04/13 06:37:40;;;;;;;2.12;1.20;;;;;;;6.93;67.66;100238.94;1714045;82;21632;-77
2022/04/13 06:40:08;;;;;;;2.62;1.35;;;;;;;6.93;67.66;100249.03;1703895;82;21113;-79
2022/04/13 06:42:41;;;;;;;3.12;1.35;;;;;;;6.93;67.72;100240.27;1729499;82;21007;-76
2022/04/13 06:45:08;;;;;;;1.60;1.02;;;;;;;6.90;67.98;100244.20;1726227;82;20980;-77
2022/04/13 06:47:38;;;;;;;2.62;1.22;;;;;;;6.92;68.16;100251.94;1725975;82;20999;-76
2022/04/13 06:50:07;;;;;;;3.00;1.25;;;;;;;6.93;68.25;100259.66;1704117;82;21444;-78
2022/04/13 06:52:35;;;;;;;2.40;1.10;;;;;;;6.93;68.24;100268.95;1720341;83;20995;-78
2022/04/13 06:55:03;;;;;;;2.90;1.42;;;;;;;6.93;68.22;100254.87;1724090;83;21440;-77
2022/04/13 06:57:33;;;;;;;2.60;1.27;;;;;;;6.94;68.08;100260.45;1724314;83;20964;-77
2022/04/13 06:59:59;;;;;;;2.45;1.30;;;;;;;6.95;68.02;100260.23;1724285;83;21043;-77
2022/04/13 07:02:26;;;;;;;3.30;1.70;;;;;;;6.95;68.01;100272.70;1722735;82;21144;-77
2022/04/13 07:04:53;;;;;;;4.28;2.35;;;;;;;6.96;68.35;100269.80;1691647;82;21017;-78
2022/04/13 07:07:20;;;;;;;3.12;1.70;;;;;;;6.98;68.71;100274.36;1695002;83;21086;-78
2022/04/13 07:09:48;;;;;;;3.00;1.35;;;;;;;7.04;68.67;100277.87;1690979;84;21031;-77
2022/04/13 07:12:15;;;;;;;3.52;1.80;;;;;;;7.06;68.45;100293.06;1698996;83;21496;-78
2022/04/13 07:14:43;;;;;;;3.40;1.77;;;;;;;7.06;68.42;100283.77;1699270;84;21138;-77
2022/04/13 07:17:12;;;;;;;4.37;1.70;;;;;;;7.07;68.44;100275.27;1699722;82;21033;-78
2022/04/13 07:19:39;;;;;;;4.03;1.47;;;;;;;7.11;68.42;100281.70;1701217;82;21082;-78
2022/04/13 07:22:05;;;;;;;6.45;1.90;;;;;;;7.13;68.34;100288.92;1701061;82;21110;-78
2022/04/13 07:24:34;;;;;;;3.83;2.17;;;;;;;7.18;68.38;100276.54;1699178;84;21099;-79
2022/04/13 07:27:03;;;;;;;5.28;2.40;;;;;;;7.20;68.19;100277.08;1688415;83;22024;-76
2022/04/13 07:29:29;;;;;;;3.92;2.35;;;;;;;7.22;68.16;100276.33;1710683;82;21051;-78
2022/04/13 07:31:59;;;;;;;2.85;1.65;;;;;;;7.28;68.39;100286.52;1710164;82;21467;-78
2022/04/13 07:34:27;;;;;;;4.53;2.35;;;;;;;7.27;68.33;100293.70;1696210;84;21539;-78
2022/04/13 07:36:54;;;;;;;3.70;1.87;;;;;;;7.28;68.49;100291.84;1694801;84;20987;-78
2022/04/13 07:39:22;;;;;;;3.42;1.90;;;;;;;7.28;68.69;100286.52;1696325;83;21112;-77
2022/04/13 07:41:49;;;;;;;3.60;2.05;;;;;;;7.27;68.88;100283.06;1696524;83;21107;-78
2022/04/13 07:44:16;;;;;;;3.87;2.35;;;;;;;7.25;69.10;100303.74;1715233;83;21496;-77
2022/04/13 07:46:44;;;;;;;5.15;2.60;;;;;;;7.25;69.12;100314.38;1684771;84;21475;-74
2022/04/13 07:49:11;;;;;;;3.20;1.70;;;;;;;7.19;68.94;100298.59;1688982;82;21477;-78
2022/04/13 07:51:41;;;;;;;3.60;2.00;;;;;;;7.16;68.86;100287.92;1646972;84;22024;-76
2022/04/13 07:54:08;;;;;;;3.67;1.67;;;;;;;7.14;68.83;100304.64;1673742;84;21092;-77
2022/04/13 07:56:35;;;;;;;2.70;1.60;;;;;;;7.14;68.87;100309.95;1677636;84;21015;-76
2022/04/13 07:59:04;;;;;;;2.40;1.10;;;;;;;7.14;68.90;100313.94;1697109;82;21104;-76
2022/04/13 08:01:30;;;;;;;3.15;1.70;;;;;;;7.14;68.83;100299.32;1682144;84;21059;-77
2022/04/13 08:04:01;;;;;;;3.58;1.75;;;;;;;7.14;68.86;100311.27;1691983;82;21547;-77
2022/04/13 08:06:30;;;;;;;2.60;1.60;;;;;;;7.13;68.83;100312.30;1688390;84;21076;-76
2022/04/13 08:08:58;;;;;;;3.50;2.10;;;;;;;7.14;68.87;100309.95;1698024;82;22789;-79
2022/04/13 08:11:27;;;;;;;3.05;1.70;;;;;;;7.17;68.99;100316.11;1697519;83;21059;-77
2022/04/13 08:13:53;;;;;;;2.42;1.50;;;;;;;7.23;68.97;100305.02;1689581;83;21027;-77
2022/04/13 08:16:23;;;;;;;4.15;2.10;;;;;;;7.25;68.69;100310.38;1699005;84;21059;-79
2022/04/13 08:18:51;;;;;;;3.00;1.50;;;;;;;7.24;68.55;100316.75;1695423;84;21046;-77
2022/04/13 08:21:18;;;;;;;2.92;1.70;;;;;;;7.24;68.51;100318.08;1714644;82;20991;-76
2022/04/13 08:23:48;;;;;;;3.05;1.75;;;;;;;7.25;68.61;100310.91;1708414;82;20986;-79
2022/04/13 08:26:15;;;;;;;2.80;1.70;;;;;;;7.28;68.54;100327.70;1706013;83;21007;-78
2022/04/13 08:28:42;;;;;;;3.00;1.75;;;;;;;7.29;68.46;100311.51;1703641;84;21849;-77
2022/04/13 08:31:09;;;;;;;3.05;1.95;;;;;;;7.31;68.32;100314.47;1703380;84;21185;-76
2022/04/13 08:33:36;;;;;;;4.55;2.33;;;;;;;7.32;68.23;100343.97;1703966;84;20979;-78
2022/04/13 08:36:04;;;;;;;4.08;2.40;;;;;;;7.32;68.09;100324.04;1714468;82;21004;-77
2022/04/13 08:38:31;;;;;;;4.33;2.65;;;;;;;7.35;68.00;100332.86;1715816;82;21138;-78
2022/04/13 08:41:05;;;;;;;3.12;1.90;;;;;;;7.36;67.93;100329.15;1691161;82;49043;-77
2022/04/13 08:43:48;;;;;;;3.15;1.90;;;;;;;7.40;67.82;100351.53;1672309;84;21507;-78
2022/04/13 08:46:25;;;;;;;1.92;1.27;;;;;;;7.41;67.55;100330.05;1701933;82;20973;-78
2022/04/13 08:48:56;;;;;;;2.98;1.80;;;;;;;7.40;67.23;100341.70;1706077;82;21553;-77
2022/04/13 08:51:24;;;;;;;3.35;1.95;;;;;;;7.38;67.30;100339.83;1701907;82;21000;-78
2022/04/13 08:54:09;;;;;;;3.80;2.20;;;;;;;7.39;67.28;100322.83;1712573;83;21653;-76
2022/04/13 08:56:36;;;;;;;2.33;1.40;;;;;;;7.40;67.40;100335.58;1711322;83;20993;-78
2022/04/13 08:59:30;;;;;;;3.80;2.10;;;;;;;7.42;67.45;100336.16;1711980;83;21020;-78
2022/04/13 09:02:19;;;;;;;3.45;2.08;;;;;;;7.41;67.46;100340.67;1709990;83;21051;-76
2022/04/13 09:04:48;;;;;;;3.77;2.45;;;;;;;7.40;67.30;100333.73;1690236;83;21050;-77
2022/04/13 09:07:14;;;;;;;3.17;2.00;;;;;;;7.39;67.17;100369.33;1681450;85;21120;-77
2022/04/13 09:09:47;;;;;;;4.28;2.00;;;;;;;7.40;67.08;100363.48;1713277;83;21062;-77
2022/04/13 09:12:14;;;;;;;3.58;2.02;;;;;;;7.40;67.19;100341.70;1668209;84;21501;-77
2022/04/13 09:14:40;;;;;;;3.52;2.00;;;;;;;7.43;67.28;100335.91;1697939;84;21599;-76
2022/04/13 09:17:08;;;;;;;3.27;1.80;;;;;;;7.43;67.13;100348.39;1697977;84;21076;-75
2022/04/13 09:19:35;;;;;;;3.17;1.90;;;;;;;7.42;67.01;100347.59;1662727;86;21838;-78
2022/04/13 09:22:02;;;;;;;3.33;1.95;;;;;;;7.44;67.09;100344.70;1722293;82;20989;-79
2022/04/13 09:24:29;;;;;;;4.65;1.70;;;;;;;7.45;67.08;100344.98;1731686;82;21083;-78
2022/04/13 09:26:59;;;;;;;2.67;1.50;;;;;;;7.45;67.10;100346.30;1677090;83;21031;-78
2022/04/13 09:29:26;;;;;;;3.05;1.55;;;;;;;7.47;67.13;100342.37;1679471;84;20999;-79
2022/04/13 09:31:53;;;;;;;3.33;1.80;;;;;;;7.49;67.18;100340.78;1669514;85;21526;-78
2022/04/13 09:34:22;;;;;;;4.28;2.20;;;;;;;7.50;67.09;100345.05;1675467;85;21078;-77
2022/04/13 09:36:50;;;;;;;3.60;2.40;;;;;;;7.51;67.14;100347.47;1675845;85;21103;-77
2022/04/13 09:39:18;;;;;;;3.87;2.35;;;;;;;7.56;67.14;100356.05;1670253;84;21169;-77
2022/04/13 09:41:46;;;;;;;3.65;1.90;;;;;;;7.62;67.04;100340.46;1703889;84;20965;-77
2022/04/13 09:44:15;;;;;;;3.62;1.98;;;;;;;7.66;66.98;100358.06;1703983;84;21135;-79
2022/04/13 09:46:43;;;;;;;3.75;1.70;;;;;;;7.70;66.85;100352.03;1703816;84;21425;-80
2022/04/13 09:49:15;;;;;;;3.27;1.70;;;;;;;7.70;66.58;100376.45;1704066;84;21071;-77
2022/04/13 09:51:45;;;;;;;2.90;1.80;;;;;;;7.71;66.45;100373.57;1703996;84;21354;-76
2022/04/13 09:54:12;;;;;;;3.12;1.95;;;;;;;7.72;66.49;100367.72;1703831;84;21520;-77
2022/04/13 09:56:49;;;;;;;3.37;1.80;;;;;;;7.74;66.71;100361.12;1704834;82;21108;-78
2022/04/13 09:59:28;;;;;;;3.95;2.50;;;;;;;7.72;67.10;100371.71;1703218;83;21020;-77
2022/04/13 10:01:55;;;;;;;3.37;1.80;;;;;;;7.67;67.57;100388.93;1704022;84;21023;-78
2022/04/13 10:04:27;;;;;;;3.25;1.92;;;;;;;7.61;67.88;100377.40;1704026;83;21047;-78
2022/04/13 10:06:57;;;;;;;3.45;2.00;;;;;;;7.58;68.25;100373.09;1703869;84;21035;-76
2022/04/13 10:09:28;;;;;;;3.25;1.77;;;;;;;7.55;68.35;100387.66;1697593;84;21770;-78
2022/04/13 10:12:03;;;;;;;3.17;2.10;;;;;;;7.54;68.37;100376.76;1709030;82;20961;-78
2022/04/13 10:14:30;;;;;;;3.85;2.10;;;;;;;7.53;68.59;100379.11;1712280;82;21035;-77
2022/04/13 10:17:09;;;;;;;3.60;2.15;;;;;;;7.54;68.37;100388.72;1703510;83;21582;-78
2022/04/13 10:19:36;;;;;;;3.12;1.50;;;;;;;7.56;68.29;100397.23;1703281;83;21007;-78
2022/04/13 10:22:07;;;;;;;2.30;1.40;;;;;;;7.56;67.78;100397.23;1704072;84;22021;-77
2022/04/13 10:24:37;;;;;;;3.17;1.10;;;;;;;7.60;67.76;100394.91;1703826;84;21031;-78
2022/04/13 10:27:10;;;;;;;2.12;1.20;;;;;;;7.62;67.39;100398.94;1703650;82;21479;-77
2022/04/13 10:29:43;;;;;;;4.03;1.70;;;;;;;7.63;67.18;100407.19;1705075;82;21065;-78
2022/04/13 10:32:14;;;;;;;2.02;1.17;;;;;;;7.64;67.08;100400.84;1703851;84;20981;-78
2022/04/13 10:34:48;;;;;;;1.98;1.32;;;;;;;7.66;67.14;100394.74;1703559;83;21498;-77
2022/04/13 10:37:18;;;;;;;2.42;1.22;;;;;;;7.69;67.37;100396.12;1703698;84;20975;-76
2022/04/13 10:39:47;;;;;;;3.20;2.00;;;;;;;7.73;67.44;100411.37;1704201;84;21157;-79
2022/04/13 10:42:17;;;;;;;4.90;2.05;;;;;;;7.71;67.34;100409.98;1703762;84;21150;-78
2022/04/13 10:44:55;;;;;;;2.65;1.60;;;;;;;7.73;67.48;100415.35;1698813;83;21160;-76
2022/04/13 10:47:36;;;;;;;2.35;1.30;;;;;;;7.75;67.27;100391.97;1699984;82;21487;-77
2022/04/13 10:50:05;;;;;;;3.10;1.57;;;;;;;7.77;67.15;100409.03;1703568;84;21038;-76
2022/04/13 10:52:55;;;;;;;2.92;1.37;;;;;;;7.78;67.16;100401.33;1674397;84;21551;-76
2022/04/13 10:55:23;;;;;;;3.60;1.50;;;;;;;7.80;67.11;100407.22;1703829;84;20985;-77
2022/04/13 10:57:53;;;;;;;2.25;1.20;;;;;;;7.82;66.98;100406.43;1704091;84;21024;-78
2022/04/13 11:00:20;;;;;;;1.22;0.75;;;;;;;7.83;66.94;100404.08;1698999;83;21490;-77
2022/04/13 11:03:03;;;;;;;1.30;0.80;;;;;;;7.85;66.90;100409.14;1681970;82;21033;-77
2022/04/13 11:05:32;;;;;;;;;;;;;;;7.84;66.89;100396.91;1706410;83;21546;-75
2022/04/13 11:08:39;;;;;;;1.72;0.85;;;;;;;7.87;66.70;100400.41;1704014;84;20150;-78
2022/04/13 11:11:08;;;;;;;2.35;0.93;;;;;;;7.81;66.66;100408.81;1703750;84;21019;-75
2022/04/13 11:13:36;;;;;;;1.82;0.93;;;;;;;7.75;66.62;100431.85;1703588;84;20964;-78
2022/04/13 11:16:23;;;;;;;1.67;0.90;;;;;;;7.71;66.90;100412.12;1703166;83;21123;-77
2022/04/13 11:19:12;;;;;;;2.05;1.15;;;;;;;7.69;67.04;100432.81;1704214;84;20988;-78
2022/04/13 11:21:56;;;;;;;2.83;1.15;;;;;;;7.65;67.32;100402.45;1704401;82;21041;-77
2022/04/13 11:24:51;;;;;;;1.20;0.98;;;;;;;7.64;67.47;100410.15;1705026;84;21013;-77
2022/04/13 11:27:19;;;;;;;2.08;1.20;;;;;;;7.62;67.74;100431.36;1705335;84;21590;-78
2022/04/13 11:30:02;;;;;;;2.33;1.15;;;;;;;7.58;68.05;100416.95;1675543;84;21554;-77
2022/04/13 11:32:35;;;;;;;2.90;1.67;;;;;;;7.55;68.37;100416.09;1703846;82;21031;-79
2022/04/13 11:35:04;;;;;;;2.27;1.10;;;;;;;7.50;68.83;100405.67;1703733;84;21039;-75
2022/04/13 11:37:39;;;;;;;1.20;0.80;;;;;;;7.50;69.17;100423.44;1704783;82;21088;-78
2022/04/13 11:40:13;;;;;;;2.33;1.15;;;;;;;7.50;69.34;100426.94;1703856;84;21376;-76
2022/04/13 11:42:49;;;;;;;2.33;0.88;;;;;;;7.50;69.17;100421.62;1703747;84;21690;-77